Time;durP1;ratioP1;P1;durP2;ratioP2;P2;SDS_P1;SDS_P2;PMS_P1;PMS_P2;Temp;Humidity;BMP_temperature;BMP_pressure;BME280_temperature;BME280_humidity;BME280_pressure;Samples;Min_cycle;Max_cycle;Signal;HPM_P1;HPM_P2
2021/07/30 00:02:08;;;;;;;14.50;5.00;;;17.50;99.90;;;;;;5057459;28;20188;-86
2021/07/30 00:04:34;;;;;;;21.17;5.30;;;17.50;99.90;;;;;;5059856;28;20168;-86
2021/07/30 00:07:00;;;;;;;14.00;5.23;;;17.40;99.90;;;;;;5071906;28;20526;-85
2021/07/30 00:09:26;;;;;;;17.23;4.73;;;17.40;99.90;;;;;;5052799;28;20164;-84
2021/07/30 00:11:52;;;;;;;14.50;5.40;;;17.40;99.90;;;;;;5071024;28;20215;-83
2021/07/30 00:14:18;;;;;;;16.37;4.90;;;17.30;99.90;;;;;;5058942;28;20587;-86
2021/07/30 00:16:43;;;;;;;14.50;5.67;;;17.30;99.90;;;;;;5056861;28;20178;-85
2021/07/30 00:19:09;;;;;;;19.17;4.90;;;17.30;99.90;;;;;;5072234;28;20227;-86
2021/07/30 00:21:35;;;;;;;14.97;5.20;;;17.30;99.90;;;;;;5058275;28;20261;-85
2021/07/30 00:24:01;;;;;;;15.73;5.00;;;17.30;99.90;;;;;;5072510;28;20665;-85
2021/07/30 00:26:26;;;;;;;16.77;5.70;;;17.30;99.90;;;;;;5060743;28;20267;-85
2021/07/30 00:28:52;;;;;;;17.37;5.20;;;17.30;99.90;;;;;;5053473;28;20195;-86
2021/07/30 00:31:18;;;;;;;22.50;5.90;;;17.20;99.90;;;;;;5053878;28;20250;-85
2021/07/30 00:33:44;;;;;;;17.63;5.60;;;17.20;99.90;;;;;;5052329;28;20202;-85
2021/07/30 00:36:10;;;;;;;12.27;4.90;;;17.20;99.90;;;;;;5054953;28;20191;-85
2021/07/30 00:38:35;;;;;;;17.43;5.40;;;17.10;99.90;;;;;;5084637;28;20174;-84
2021/07/30 00:41:02;;;;;;;15.63;5.33;;;17.10;99.90;;;;;;5070222;28;20189;-85
2021/07/30 00:43:27;;;;;;;15.07;5.53;;;17.00;99.90;;;;;;5067775;28;20207;-86
2021/07/30 00:45:56;;;;;;;15.80;5.47;;;16.90;99.90;;;;;;5053796;28;20189;-85
2021/07/30 00:48:23;;;;;;;13.93;5.27;;;16.80;99.90;;;;;;5070243;28;20190;-86
2021/07/30 00:50:49;;;;;;;15.47;5.30;;;16.80;99.90;;;;;;5066139;28;20207;-86
2021/07/30 00:53:16;;;;;;;19.13;5.77;;;16.80;99.90;;;;;;5070794;28;20576;-85
2021/07/30 00:55:43;;;;;;;17.07;5.80;;;16.70;99.90;;;;;;5077469;28;20214;-85
2021/07/30 00:58:10;;;;;;;19.03;5.43;;;16.80;99.90;;;;;;5054420;28;20180;-85
2021/07/30 01:00:36;;;;;;;15.67;5.40;;;16.70;99.90;;;;;;5066817;28;20187;-86
2021/07/30 01:03:03;;;;;;;13.20;5.30;;;16.70;99.90;;;;;;5045159;28;20198;-85
2021/07/30 01:05:30;;;;;;;16.47;5.47;;;16.70;99.90;;;;;;5056878;28;21656;-86
2021/07/30 01:07:59;;;;;;;12.83;5.43;;;16.70;99.90;;;;;;5062244;28;20187;-85
2021/07/30 01:10:25;;;;;;;15.20;5.57;;;16.60;99.90;;;;;;5070794;28;20206;-86
2021/07/30 01:12:51;;;;;;;18.73;5.40;;;16.60;99.90;;;;;;5054947;28;20181;-85
2021/07/30 01:15:17;;;;;;;17.17;5.73;;;16.60;99.90;;;;;;5053377;28;20688;-86
2021/07/30 01:17:44;;;;;;;17.97;5.40;;;16.60;99.90;;;;;;5068219;28;20243;-86
2021/07/30 01:20:11;;;;;;;17.50;5.37;;;16.60;99.90;;;;;;5071187;28;20580;-85
2021/07/30 01:22:56;;;;;;;13.37;5.40;;;16.60;99.90;;;;;;5053747;28;20749;-85
2021/07/30 01:25:23;;;;;;;14.23;5.43;;;16.60;99.90;;;;;;5072198;28;20183;-85
2021/07/30 01:27:50;;;;;;;17.00;5.53;;;16.70;99.90;;;;;;5051231;28;20193;-86
2021/07/30 01:30:19;;;;;;;18.63;5.80;;;16.70;99.90;;;;;;5053361;28;20343;-85
2021/07/30 01:32:46;;;;;;;14.57;5.87;;;16.70;99.90;;;;;;5052731;28;20198;-85
2021/07/30 01:35:12;;;;;;;14.17;5.10;;;16.60;99.90;;;;;;5052434;28;20194;-85
2021/07/30 01:37:38;;;;;;;15.10;5.37;;;16.70;99.90;;;;;;5054212;28;20176;-85
2021/07/30 01:40:05;;;;;;;15.50;5.17;;;16.60;99.90;;;;;;5068677;28;20202;-85
2021/07/30 01:42:31;;;;;;;14.73;5.53;;;16.50;99.90;;;;;;5068612;28;20187;-85
2021/07/30 01:44:57;;;;;;;14.97;5.37;;;16.50;99.90;;;;;;5053959;28;20190;-85
2021/07/30 01:47:23;;;;;;;16.37;5.87;;;16.50;99.90;;;;;;5050620;28;20177;-85
2021/07/30 01:49:51;;;;;;;14.90;5.67;;;16.40;99.90;;;;;;5053172;28;20269;-85
2021/07/30 01:52:18;;;;;;;11.90;5.40;;;16.40;99.90;;;;;;5056983;28;20636;-85
2021/07/30 01:54:45;;;;;;;15.67;5.77;;;16.40;99.90;;;;;;5073872;28;20190;-83
2021/07/30 01:57:12;;;;;;;19.87;5.80;;;16.40;99.90;;;;;;5058197;28;20665;-86
2021/07/30 01:59:40;;;;;;;14.33;5.13;;;16.40;99.90;;;;;;5052231;28;20252;-86
2021/07/30 02:02:06;;;;;;;14.93;5.20;;;16.40;99.90;;;;;;5072341;28;20312;-85
2021/07/30 02:04:33;;;;;;;16.73;5.47;;;16.50;99.90;;;;;;5073053;28;20194;-86
2021/07/30 02:06:59;;;;;;;14.70;5.67;;;16.40;99.90;;;;;;5057629;28;20174;-86
2021/07/30 02:09:24;;;;;;;14.47;5.67;;;16.30;99.90;;;;;;5057296;28;20240;-85
2021/07/30 02:11:51;;;;;;;15.67;5.77;;;16.30;99.90;;;;;;5064734;28;20202;-86
2021/07/30 02:14:24;;;;;;;20.73;6.30;;;16.30;99.90;;;;;;5058295;28;20221;-86
2021/07/30 02:16:53;;;;;;;15.90;6.07;;;16.40;99.90;;;;;;5058797;28;20282;-86
2021/07/30 02:19:20;;;;;;;16.93;6.13;;;16.40;99.90;;;;;;5059242;28;20260;-86
2021/07/30 02:21:47;;;;;;;17.60;5.27;;;16.40;99.90;;;;;;5055749;28;20172;-85
2021/07/30 02:24:13;;;;;;;15.57;5.50;;;16.40;99.90;;;;;;5074663;28;20529;-86
2021/07/30 02:26:38;;;;;;;15.67;5.97;;;16.40;99.90;;;;;;5062195;28;20598;-86
2021/07/30 02:29:05;;;;;;;13.90;5.57;;;16.40;99.90;;;;;;5059270;28;20254;-85
2021/07/30 02:31:31;;;;;;;17.90;5.83;;;16.30;99.90;;;;;;5054037;28;20264;-86
2021/07/30 02:33:57;;;;;;;16.77;5.77;;;16.20;99.90;;;;;;5063693;28;20193;-85
2021/07/30 02:36:23;;;;;;;15.80;5.60;;;16.20;99.90;;;;;;5070043;28;20191;-86
2021/07/30 02:38:50;;;;;;;15.87;5.40;;;16.20;99.90;;;;;;5056458;28;20262;-85
2021/07/30 02:41:16;;;;;;;19.13;6.23;;;16.10;99.90;;;;;;5066659;28;20248;-86
2021/07/30 02:43:43;;;;;;;15.67;5.87;;;16.10;99.90;;;;;;5056599;28;20217;-86
2021/07/30 02:46:09;;;;;;;14.00;5.80;;;16.10;99.90;;;;;;5058567;28;20182;-85
2021/07/30 02:48:35;;;;;;;14.13;5.90;;;16.10;99.90;;;;;;5055189;28;20709;-86
2021/07/30 02:51:02;;;;;;;14.43;6.00;;;16.10;99.90;;;;;;5057423;28;20685;-85
2021/07/30 02:53:28;;;;;;;15.97;5.53;;;16.10;99.90;;;;;;5056717;28;20194;-86
2021/07/30 02:55:54;;;;;;;14.10;5.80;;;16.00;99.90;;;;;;5070947;28;20181;-86
2021/07/30 02:58:19;;;;;;;15.30;6.20;;;16.10;99.90;;;;;;5054856;28;20213;-86
2021/07/30 03:00:45;;;;;;;15.73;6.13;;;16.10;99.90;;;;;;5039490;28;20654;-85
2021/07/30 03:03:11;;;;;;;16.70;6.07;;;16.10;99.90;;;;;;5058039;28;20188;-86
2021/07/30 03:05:37;;;;;;;14.83;6.50;;;16.20;99.90;;;;;;5064834;28;20190;-86
2021/07/30 03:08:03;;;;;;;15.23;6.13;;;16.30;99.90;;;;;;5083572;28;20186;-86
2021/07/30 03:10:28;;;;;;;18.47;6.57;;;16.30;99.90;;;;;;5067014;28;20214;-85
2021/07/30 03:12:54;;;;;;;14.77;5.90;;;16.30;99.90;;;;;;5065991;28;20256;-85
2021/07/30 03:15:20;;;;;;;17.47;6.40;;;16.20;99.90;;;;;;5085337;28;20676;-85
2021/07/30 03:17:45;;;;;;;14.33;5.87;;;16.30;99.90;;;;;;5060051;28;20310;-84
2021/07/30 03:20:12;;;;;;;22.20;7.00;;;16.30;99.90;;;;;;5058902;28;20586;-84
2021/07/30 03:22:37;;;;;;;16.07;6.40;;;16.30;99.90;;;;;;5054150;28;20674;-84
2021/07/30 03:25:04;;;;;;;18.70;6.47;;;16.40;99.90;;;;;;5062025;28;20277;-84
2021/07/30 03:27:30;;;;;;;18.00;6.10;;;16.40;99.90;;;;;;5052246;28;20274;-85
2021/07/30 03:29:56;;;;;;;18.50;6.30;;;16.50;99.90;;;;;;5054353;28;20214;-84
2021/07/30 03:32:21;;;;;;;20.73;6.97;;;16.50;99.90;;;;;;5058492;28;20170;-85
2021/07/30 03:34:47;;;;;;;18.03;6.47;;;16.50;99.90;;;;;;5054242;28;20181;-85
2021/07/30 03:37:13;;;;;;;17.80;6.43;;;16.50;99.90;;;;;;5061230;28;20221;-86
2021/07/30 03:39:39;;;;;;;22.57;7.07;;;16.40;99.90;;;;;;5056136;28;20170;-85
2021/07/30 03:42:06;;;;;;;18.23;6.37;;;16.40;99.90;;;;;;5060534;28;20194;-85
2021/07/30 03:44:32;;;;;;;18.30;6.23;;;16.40;99.90;;;;;;5054431;28;20230;-86
2021/07/30 03:46:58;;;;;;;15.30;7.03;;;16.40;99.90;;;;;;5072367;28;20197;-86
2021/07/30 03:49:24;;;;;;;17.63;6.93;;;16.40;99.90;;;;;;5070817;28;20191;-86
2021/07/30 03:51:50;;;;;;;16.47;6.50;;;16.40;99.90;;;;;;5056011;28;20214;-86
2021/07/30 03:54:19;;;;;;;13.43;5.90;;;16.40;99.90;;;;;;5072878;28;20213;-87
2021/07/30 03:56:45;;;;;;;16.90;6.80;;;16.50;99.90;;;;;;5066551;28;20182;-86
2021/07/30 03:59:11;;;;;;;16.83;6.67;;;16.40;99.90;;;;;;5057598;28;20658;-83
2021/07/30 04:01:40;;;;;;;23.33;7.07;;;16.40;99.90;;;;;;5057138;28;20178;-86
2021/07/30 04:04:06;;;;;;;17.97;6.37;;;16.40;99.90;;;;;;5070971;28;20555;-85
2021/07/30 04:06:32;;;;;;;19.57;6.73;;;16.50;99.90;;;;;;5060974;28;20220;-85
2021/07/30 04:08:57;;;;;;;15.03;7.00;;;16.50;99.90;;;;;;5057055;28;20549;-85
2021/07/30 04:11:23;;;;;;;16.00;7.23;;;16.50;99.90;;;;;;5053707;28;20211;-85
2021/07/30 04:13:49;;;;;;;17.60;6.50;;;16.50;99.90;;;;;;5054879;28;20177;-86
2021/07/30 04:16:15;;;;;;;14.63;5.83;;;16.50;99.90;;;;;;5069808;28;20551;-86
2021/07/30 04:18:40;;;;;;;16.87;6.50;;;16.50;99.90;;;;;;5058108;28;20240;-86
2021/07/30 04:21:07;;;;;;;16.23;6.50;;;16.50;99.90;;;;;;5056095;28;20186;-84
2021/07/30 04:23:36;;;;;;;15.17;6.17;;;16.50;99.90;;;;;;5070854;28;20175;-86
2021/07/30 04:26:02;;;;;;;19.63;6.30;;;16.50;99.90;;;;;;5058819;28;20283;-85
2021/07/30 04:28:28;;;;;;;16.10;5.47;;;16.50;99.90;;;;;;5079453;28;20321;-87
2021/07/30 04:30:54;;;;;;;15.73;6.27;;;16.50;99.90;;;;;;5056162;28;20226;-86
2021/07/30 04:33:19;;;;;;;12.73;5.63;;;16.60;99.90;;;;;;5063335;28;20281;-86
2021/07/30 04:35:45;;;;;;;15.33;6.00;;;16.70;99.90;;;;;;5071624;28;20180;-86
2021/07/30 04:38:11;;;;;;;19.80;6.60;;;16.80;99.90;;;;;;5067797;28;20214;-84
2021/07/30 04:40:38;;;;;;;15.63;5.50;;;16.90;99.90;;;;;;5069151;28;20187;-82
2021/07/30 04:43:05;;;;;;;16.87;5.73;;;17.00;99.90;;;;;;5054977;28;20210;-81
2021/07/30 04:45:33;;;;;;;15.23;5.13;;;17.10;99.90;;;;;;5071767;28;20647;-81
2021/07/30 04:47:59;;;;;;;13.57;4.97;;;17.20;99.90;;;;;;5053610;28;20223;-82
2021/07/30 04:50:24;;;;;;;15.13;5.17;;;17.30;99.90;;;;;;5063251;28;20217;-81
2021/07/30 04:52:54;;;;;;;12.63;4.90;;;17.70;99.90;;;;;;5071422;28;20198;-82
2021/07/30 04:55:20;;;;;;;14.73;4.70;;;18.10;99.90;;;;;;5051460;28;20183;-82
2021/07/30 04:57:46;;;;;;;12.07;4.50;;;18.10;99.90;;;;;;5055191;28;20519;-82
2021/07/30 05:00:12;;;;;;;14.23;5.27;;;18.10;99.90;;;;;;5052363;28;20192;-83
2021/07/30 05:02:38;;;;;;;12.97;4.50;;;18.40;99.90;;;;;;5067710;28;20250;-82
2021/07/30 05:05:04;;;;;;;10.80;4.13;;;18.60;99.90;;;;;;5070824;28;20192;-83
2021/07/30 05:07:30;;;;;;;12.40;4.10;;;18.80;99.90;;;;;;5051613;28;20175;-82
2021/07/30 05:09:55;;;;;;;12.23;4.60;;;18.90;99.90;;;;;;5056267;28;20564;-82
2021/07/30 05:12:21;;;;;;;9.63;3.80;;;19.10;99.90;;;;;;5051008;28;20628;-83
2021/07/30 05:14:47;;;;;;;12.13;4.27;;;19.00;99.90;;;;;;5067338;28;20182;-83
2021/07/30 05:17:12;;;;;;;12.93;3.87;;;18.90;99.90;;;;;;5071527;28;20187;-83
2021/07/30 05:19:39;;;;;;;10.27;4.03;;;18.70;99.90;;;;;;5045674;28;20216;-81
2021/07/30 05:22:04;;;;;;;12.70;4.27;;;18.60;99.90;;;;;;5070090;28;20634;-83
2021/07/30 05:24:34;;;;;;;9.77;3.50;;;18.80;99.90;;;;;;5066393;28;20275;-83
2021/07/30 05:27:00;;;;;;;9.87;3.50;;;18.70;99.90;;;;;;5068237;28;20179;-82
2021/07/30 05:29:26;;;;;;;11.67;3.30;;;18.80;99.90;;;;;;5069461;28;20221;-82
2021/07/30 05:31:51;;;;;;;11.37;3.63;;;18.90;99.90;;;;;;5080924;28;20288;-82
2021/07/30 05:34:21;;;;;;;12.77;3.50;;;18.90;99.90;;;;;;5052124;28;20180;-83
2021/07/30 05:36:46;;;;;;;13.13;3.50;;;19.10;99.90;;;;;;5046775;28;20786;-83
2021/07/30 05:39:12;;;;;;;11.77;3.30;;;19.20;99.90;;;;;;5044199;28;20282;-83
2021/07/30 05:41:38;;;;;;;9.10;3.27;;;19.20;99.90;;;;;;5066330;28;20250;-83
2021/07/30 05:44:04;;;;;;;8.33;3.33;;;19.20;99.90;;;;;;5047922;28;20218;-84
2021/07/30 05:46:30;;;;;;;9.47;3.40;;;19.40;99.90;;;;;;5065069;28;20178;-83
2021/07/30 05:48:59;;;;;;;10.23;3.40;;;19.40;99.90;;;;;;5045435;28;20241;-84
2021/07/30 05:51:25;;;;;;;12.27;3.10;;;19.90;99.90;;;;;;5066343;28;21067;-84
2021/07/30 05:53:51;;;;;;;8.13;2.70;;;20.80;99.90;;;;;;5044260;28;20273;-83
2021/07/30 05:56:17;;;;;;;10.23;3.00;;;21.50;99.90;;;;;;5063782;28;20274;-83
2021/07/30 05:58:42;;;;;;;9.37;3.20;;;21.50;99.90;;;;;;5049656;28;20192;-83
2021/07/30 06:01:14;;;;;;;6.90;2.80;;;21.90;99.90;;;;;;5058511;28;20208;-83
2021/07/30 06:03:40;;;;;;;8.27;2.67;;;22.80;99.90;;;;;;5079828;28;20173;-84
2021/07/30 06:06:06;;;;;;;8.60;2.83;;;23.50;99.90;;;;;;5064419;28;20191;-84
2021/07/30 06:08:32;;;;;;;7.87;2.83;;;22.90;99.90;;;;;;5064099;28;20193;-84
2021/07/30 06:10:58;;;;;;;6.67;2.50;;;22.80;99.90;;;;;;5065339;28;20569;-84
2021/07/30 06:13:24;;;;;;;5.33;2.30;;;22.90;99.90;;;;;;5067717;28;20228;-84
2021/07/30 06:15:49;;;;;;;6.63;2.50;;;23.70;99.90;;;;;;5047609;28;20198;-84
2021/07/30 06:18:15;;;;;;;6.57;2.10;;;24.50;99.90;;;;;;5033311;28;20315;-84
2021/07/30 06:20:41;;;;;;;6.73;2.40;;;24.60;99.90;;;;;;5064728;28;20180;-83
2021/07/30 06:23:07;;;;;;;8.17;2.53;;;24.10;99.90;;;;;;5068007;28;20273;-83
2021/07/30 06:25:33;;;;;;;6.77;2.30;;;23.70;99.90;;;;;;5047167;28;20196;-83
2021/07/30 06:28:00;;;;;;;8.80;2.90;;;23.20;99.90;;;;;;5060697;28;20646;-83
2021/07/30 06:30:26;;;;;;;7.03;2.57;;;22.70;99.90;;;;;;5066588;28;20739;-83
2021/07/30 06:32:52;;;;;;;5.73;2.47;;;22.50;99.90;;;;;;5048488;28;20274;-83
2021/07/30 06:35:20;;;;;;;8.67;2.40;;;22.30;99.90;;;;;;5050010;28;20204;-84
2021/07/30 06:37:46;;;;;;;6.23;2.37;;;22.40;99.90;;;;;;5056009;28;20282;-84
2021/07/30 06:40:13;;;;;;;5.57;2.50;;;22.60;99.90;;;;;;5067702;28;20259;-83
2021/07/30 06:42:39;;;;;;;7.83;2.83;;;22.50;99.90;;;;;;5070108;28;20218;-83
2021/07/30 06:45:06;;;;;;;8.23;2.50;;;22.50;99.90;;;;;;5054119;28;20277;-84
2021/07/30 06:47:36;;;;;;;6.50;2.50;;;22.60;99.90;;;;;;5069445;28;20188;-82
2021/07/30 06:50:03;;;;;;;6.33;2.30;;;23.00;99.90;;;;;;5056582;28;20336;-84
2021/07/30 06:52:30;;;;;;;6.77;2.10;;;24.30;99.90;;;;;;5068307;28;20183;-84
2021/07/30 06:54:56;;;;;;;9.40;2.47;;;25.20;99.90;;;;;;5054296;28;20202;-83
2021/07/30 06:57:22;;;;;;;5.87;2.10;;;25.80;99.90;;;;;;5066876;28;20181;-82
2021/07/30 06:59:48;;;;;;;6.53;2.33;;;26.50;99.90;;;;;;5052459;28;20191;-83
2021/07/30 07:02:15;;;;;;;5.55;2.20;;;26.90;99.90;;;;;;5057775;28;20261;-84
2021/07/30 07:04:41;;;;;;;5.20;2.05;;;26.60;99.90;;;;;;5072875;28;20854;-82
2021/07/30 07:07:06;;;;;;;7.30;2.30;;;26.70;99.90;;;;;;5069147;28;20180;-83
2021/07/30 07:09:32;;;;;;;6.90;2.20;;;26.90;99.90;;;;;;5052955;28;20663;-83
2021/07/30 07:11:58;;;;;;;7.38;2.42;;;27.70;99.90;;;;;;5048281;28;20671;-82
2021/07/30 07:14:24;;;;;;;7.07;2.20;;;27.70;99.90;;;;;;5054075;28;20184;-83
2021/07/30 07:16:50;;;;;;;6.50;1.90;;;28.00;99.90;;;;;;5064827;28;20185;-83
2021/07/30 07:19:15;;;;;;;7.13;2.45;;;28.30;99.90;;;;;;5072312;28;20220;-83
2021/07/30 07:21:41;;;;;;;8.88;2.25;;;29.10;99.90;;;;;;5064262;28;20221;-83
2021/07/30 07:24:07;;;;;;;10.75;2.38;;;29.90;99.90;;;;;;5053914;28;20278;-84
2021/07/30 07:26:38;;;;;;;4.78;1.80;;;29.60;99.80;;;;;;5055373;28;20180;-83
2021/07/30 07:29:05;;;;;;;6.50;2.40;;;29.20;99.50;;;;;;5053542;28;20184;-83
2021/07/30 07:31:30;;;;;;;9.85;2.45;;;28.80;99.90;;;;;;5056691;28;20236;-83
2021/07/30 07:33:57;;;;;;;5.10;2.22;;;29.00;99.00;;;;;;5069831;28;20309;-82
2021/07/30 07:36:22;;;;;;;11.10;2.50;;;30.80;97.50;;;;;;5068426;28;20172;-83
2021/07/30 07:38:48;;;;;;;7.03;2.10;;;30.20;95.60;;;;;;5053378;28;20687;-83
2021/07/30 07:41:14;;;;;;;7.28;2.30;;;29.30;96.60;;;;;;5066049;28;20215;-83
2021/07/30 07:43:40;;;;;;;10.30;2.28;;;28.60;97.90;;;;;;5076965;28;20233;-83
2021/07/30 07:46:06;;;;;;;7.95;2.20;;;28.00;98.70;;;;;;5055273;28;20192;-83
2021/07/30 07:48:32;;;;;;;7.93;2.38;;;27.70;99.10;;;;;;5066570;28;20290;-83
2021/07/30 07:50:57;;;;;;;7.45;2.28;;;27.70;99.20;;;;;;5054488;28;20199;-83
2021/07/30 07:53:23;;;;;;;8.52;2.50;;;28.80;99.00;;;;;;5068742;28;20198;-83
2021/07/30 07:56:02;;;;;;;7.05;2.10;;;29.10;97.70;;;;;;5067380;28;20640;-84
2021/07/30 07:58:32;;;;;;;4.65;2.10;;;28.80;97.10;;;;;;5046710;28;20555;-83
2021/07/30 08:00:58;;;;;;;6.50;1.90;;;29.40;96.70;;;;;;5073905;28;20175;-84
2021/07/30 08:03:24;;;;;;;4.78;1.80;;;30.30;95.20;;;;;;5047613;28;20578;-84
2021/07/30 08:05:50;;;;;;;5.50;1.80;;;31.00;94.10;;;;;;5052682;28;20183;-83
2021/07/30 08:08:16;;;;;;;6.47;2.30;;;32.10;92.50;;;;;;5056182;28;20549;-84
2021/07/30 08:10:42;;;;;;;4.60;1.90;;;32.90;91.40;;;;;;5062852;28;20718;-84
2021/07/30 08:13:07;;;;;;;5.03;1.90;;;34.60;86.80;;;;;;5054326;28;20172;-84
2021/07/30 08:15:33;;;;;;;7.60;1.92;;;36.10;81.60;;;;;;5048233;28;20745;-85
2021/07/30 08:17:59;;;;;;;5.65;1.88;;;36.70;73.70;;;;;;5047295;28;20232;-83
2021/07/30 08:20:25;;;;;;;4.45;2.00;;;36.20;72.80;;;;;;5051928;28;20671;-84
2021/07/30 08:22:51;;;;;;;5.43;1.88;;;34.60;71.20;;;;;;5052447;28;20187;-83
2021/07/30 08:25:17;;;;;;;6.47;2.20;;;33.50;76.40;;;;;;5052817;28;20172;-84
2021/07/30 08:27:43;;;;;;;4.68;1.90;;;34.30;76.30;;;;;;5065673;28;20264;-83
2021/07/30 08:30:09;;;;;;;6.97;2.00;;;34.10;76.20;;;;;;5066311;28;20179;-83
2021/07/30 08:32:35;;;;;;;6.40;2.03;;;35.40;72.90;;;;;;5060997;28;20184;-83
2021/07/30 08:35:01;;;;;;;6.75;1.92;;;37.20;69.90;;;;;;5053000;28;20538;-84
2021/07/30 08:37:27;;;;;;;10.68;1.88;;;38.20;66.70;;;;;;5048026;28;20185;-84
2021/07/30 08:39:52;;;;;;;6.30;2.20;;;38.80;63.30;;;;;;5060835;28;20212;-84
2021/07/30 08:42:19;;;;;;;5.03;1.90;;;38.50;61.10;;;;;;5064603;28;20175;-83
2021/07/30 08:44:46;;;;;;;5.88;1.88;;;38.80;60.70;;;;;;5050244;28;20294;-84
2021/07/30 08:47:13;;;;;;;4.75;1.90;;;38.50;59.60;;;;;;5067771;28;20167;-84
2021/07/30 08:49:40;;;;;;;5.47;1.90;;;38.10;59.40;;;;;;5047966;28;20658;-85
2021/07/30 08:52:07;;;;;;;4.20;2.00;;;38.60;60.50;;;;;;5051679;28;20262;-84
2021/07/30 08:54:33;;;;;;;4.30;2.05;;;38.90;59.30;;;;;;5071824;28;20190;-83
2021/07/30 08:56:59;;;;;;;4.43;1.75;;;39.50;57.20;;;;;;5066995;28;20222;-83
2021/07/30 08:59:24;;;;;;;4.88;1.95;;;39.70;56.80;;;;;;5046278;28;20574;-83
2021/07/30 09:01:54;;;;;;;5.32;1.90;;;39.80;57.30;;;;;;5055725;28;20180;-84
2021/07/30 09:04:30;;;;;;;6.72;2.25;;;40.50;55.50;;;;;;5049569;28;20646;-83
2021/07/30 09:06:58;;;;;;;6.00;2.22;;;40.00;55.60;;;;;;5053360;28;20192;-84
2021/07/30 09:09:24;;;;;;;7.95;2.55;;;38.40;55.80;;;;;;5067223;28;20545;-84
2021/07/30 09:11:58;;;;;;;5.25;2.40;;;37.50;58.60;;;;;;5051120;28;20270;-84
2021/07/30 09:14:39;;;;;;;7.00;2.60;;;36.90;58.80;;;;;;5067173;28;20199;-82
2021/07/30 09:17:06;;;;;;;9.80;2.47;;;36.40;59.20;;;;;;5067588;28;20531;-82
2021/07/30 09:19:32;;;;;;;6.63;2.47;;;35.10;60.90;;;;;;5066334;28;20215;-83
2021/07/30 09:22:09;;;;;;;7.53;2.55;;;35.00;61.90;;;;;;5069909;28;20203;-82
2021/07/30 09:24:43;;;;;;;5.03;2.40;;;34.10;61.40;;;;;;5050871;28;20186;-83
2021/07/30 09:27:13;;;;;;;5.50;2.50;;;33.60;63.10;;;;;;5047184;28;20191;-82
2021/07/30 09:29:40;;;;;;;6.05;2.40;;;33.50;65.20;;;;;;5067849;28;20246;-83
2021/07/30 09:32:14;;;;;;;6.97;3.05;;;33.70;64.70;;;;;;5069038;28;20206;-82
2021/07/30 09:34:50;;;;;;;6.18;2.40;;;34.10;64.20;;;;;;5044529;28;20193;-82
2021/07/30 09:37:19;;;;;;;7.50;2.78;;;34.70;63.60;;;;;;5066770;28;20210;-83
2021/07/30 09:39:47;;;;;;;7.18;2.60;;;35.20;63.30;;;;;;5069326;28;20785;-83
2021/07/30 09:42:18;;;;;;;5.20;2.70;;;34.30;63.30;;;;;;5045447;28;20197;-84
2021/07/30 09:45:03;;;;;;;6.95;2.65;;;33.30;68.00;;;;;;5065986;28;20203;-82
2021/07/30 09:47:30;;;;;;;6.45;2.58;;;32.40;68.80;;;;;;5062633;28;20184;-84
2021/07/30 09:49:57;;;;;;;8.45;2.83;;;31.20;69.10;;;;;;5052336;28;20229;-83
2021/07/30 09:52:41;;;;;;;5.53;2.55;;;30.20;71.40;;;;;;5063284;28;20212;-83
2021/07/30 09:55:09;;;;;;;5.55;2.70;;;29.20;72.10;;;;;;5066331;28;20225;-84
2021/07/30 09:57:40;;;;;;;5.15;2.40;;;28.30;74.40;;;;;;5062358;28;20177;-82
2021/07/30 10:00:09;;;;;;;6.97;2.80;;;27.90;76.40;;;;;;5052835;28;20234;-82
2021/07/30 10:02:40;;;;;;;8.20;2.67;;;27.60;80.20;;;;;;5051052;28;20183;-84
2021/07/30 10:05:07;;;;;;;7.60;3.10;;;27.30;80.20;;;;;;5050817;28;20188;-85
2021/07/30 10:07:36;;;;;;;5.88;2.60;;;27.00;81.50;;;;;;5063857;28;20180;-82
2021/07/30 10:12:50;;;;;;;6.63;2.47;;;28.70;81.60;;;;;;5086460;28;20644;-83
2021/07/30 10:15:17;;;;;;;5.85;2.60;;;29.10;78.90;;;;;;5067521;28;20183;-84
2021/07/30 10:17:47;;;;;;;6.68;2.72;;;28.90;79.20;;;;;;5053809;28;20194;-83
2021/07/30 10:20:15;;;;;;;6.20;2.10;;;29.00;80.00;;;;;;5051726;28;20253;-85
2021/07/30 10:22:57;;;;;;;7.78;2.40;;;29.60;80.60;;;;;;5072903;28;20681;-84
2021/07/30 10:25:28;;;;;;;7.75;2.78;;;29.70;76.90;;;;;;5056848;28;20269;-83
2021/07/30 10:28:02;;;;;;;7.05;2.47;;;29.20;78.00;;;;;;5065224;28;20187;-83
2021/07/30 10:30:34;;;;;;;5.32;2.72;;;28.90;79.20;;;;;;5053713;28;20666;-83
2021/07/30 10:33:02;;;;;;;8.18;2.67;;;29.00;80.20;;;;;;5072627;28;20197;-84
2021/07/30 10:35:28;;;;;;;7.97;2.92;;;29.00;80.10;;;;;;5069006;28;20195;-84
2021/07/30 10:38:10;;;;;;;9.57;2.80;;;28.90;79.80;;;;;;5071167;28;20702;-83
2021/07/30 10:40:36;;;;;;;7.93;2.53;;;28.10;80.30;;;;;;5069566;28;20293;-83
2021/07/30 10:43:06;;;;;;;9.07;2.70;;;27.80;82.90;;;;;;5071662;28;20219;-84
2021/07/30 10:45:33;;;;;;;6.60;2.63;;;27.50;83.80;;;;;;5062492;28;20254;-84
2021/07/30 10:48:14;;;;;;;6.05;2.45;;;27.50;84.30;;;;;;5071334;28;20204;-83
2021/07/30 10:50:56;;;;;;;6.82;2.65;;;27.50;84.00;;;;;;5067058;28;20295;-84
2021/07/30 10:53:42;;;;;;;7.95;2.88;;;27.50;85.60;;;;;;5069512;28;20175;-83
2021/07/30 10:56:28;;;;;;;5.60;2.53;;;28.00;86.00;;;;;;5065679;28;20188;-84
2021/07/30 10:58:55;;;;;;;5.57;2.40;;;28.30;84.80;;;;;;5058517;28;20200;-83
2021/07/30 11:01:27;;;;;;;6.35;2.33;;;28.50;83.00;;;;;;5067784;28;20188;-84
2021/07/30 11:03:52;;;;;;;7.05;2.60;;;28.50;82.70;;;;;;5051822;28;20713;-84
2021/07/30 11:06:29;;;;;;;6.28;2.92;;;27.80;83.60;;;;;;5054631;28;20173;-84
2021/07/30 11:09:04;;;;;;;7.40;2.72;;;27.80;84.70;;;;;;5051182;28;20188;-85
2021/07/30 11:11:54;;;;;;;8.65;2.78;;;28.40;85.50;;;;;;5052695;28;20225;-82
2021/07/30 11:14:23;;;;;;;5.28;2.47;;;28.40;85.60;;;;;;5050135;28;20246;-83
2021/07/30 11:16:48;;;;;;;6.35;2.63;;;28.70;85.20;;;;;;5072332;28;20636;-84
2021/07/30 11:19:17;;;;;;;5.13;2.30;;;28.90;84.20;;;;;;5073881;28;20238;-83
2021/07/30 11:21:43;;;;;;;6.68;2.65;;;28.10;84.90;;;;;;5069649;28;20319;-84
2021/07/30 11:24:09;;;;;;;7.57;2.70;;;27.50;86.70;;;;;;5070226;28;20271;-83
2021/07/30 11:26:38;;;;;;;6.55;2.67;;;28.00;87.50;;;;;;5069870;28;20228;-84
2021/07/30 11:29:12;;;;;;;8.77;2.60;;;29.00;84.20;;;;;;5068945;28;20257;-83
2021/07/30 11:31:55;;;;;;;8.10;2.65;;;28.90;85.50;;;;;;5073269;28;20211;-83
2021/07/30 11:34:29;;;;;;;5.40;2.75;;;28.70;85.40;;;;;;5054379;28;20643;-83
2021/07/30 11:36:56;;;;;;;7.88;2.58;;;28.40;85.70;;;;;;5056414;28;20170;-83
2021/07/30 11:39:39;;;;;;;6.88;2.50;;;28.30;87.90;;;;;;5054020;28;20179;-83
2021/07/30 11:42:12;;;;;;;7.78;2.60;;;27.90;87.00;;;;;;5057142;28;20269;-86
2021/07/30 11:44:45;;;;;;;5.72;2.72;;;27.10;90.20;;;;;;5050102;28;20223;-83
2021/07/30 11:47:11;;;;;;;9.02;2.83;;;26.80;91.10;;;;;;5071136;28;20187;-83
2021/07/30 11:49:39;;;;;;;6.72;2.88;;;26.50;92.00;;;;;;5065434;28;20185;-83
2021/07/30 11:52:09;;;;;;;5.43;2.50;;;26.20;92.50;;;;;;5054884;28;20203;-83
2021/07/30 11:54:36;;;;;;;6.25;2.97;;;25.80;94.00;;;;;;5056247;28;20203;-82
2021/07/30 11:57:01;;;;;;;10.52;3.38;;;25.60;95.60;;;;;;5054246;28;20180;-82
2021/07/30 11:59:46;;;;;;;11.15;3.60;;;25.40;98.50;;;;;;5054828;28;20168;-83
2021/07/30 12:02:13;;;;;;;6.22;3.00;;;25.20;99.90;;;;;;5081367;28;20195;-83
2021/07/30 12:04:55;;;;;;;5.65;3.15;;;25.00;99.90;;;;;;5052146;28;20188;-84
2021/07/30 12:07:25;;;;;;;6.53;3.22;;;24.90;99.90;;;;;;5050862;28;20290;-82
2021/07/30 12:09:55;;;;;;;7.43;3.20;;;24.80;99.90;;;;;;5065508;28;20184;-84
2021/07/30 12:12:22;;;;;;;9.35;3.60;;;24.80;99.90;;;;;;5052716;28;20204;-84
2021/07/30 12:14:51;;;;;;;11.47;3.47;;;24.80;99.90;;;;;;5065306;28;20188;-84
2021/07/30 12:17:18;;;;;;;7.97;3.10;;;24.90;99.90;;;;;;5068783;28;20187;-84
2021/07/30 12:19:59;;;;;;;6.97;2.70;;;24.80;99.90;;;;;;5047113;28;20224;-83
2021/07/30 12:22:41;;;;;;;14.93;3.87;;;24.70;99.90;;;;;;5070585;28;20374;-83
2021/07/30 12:25:17;;;;;;;7.97;3.50;;;24.80;99.90;;;;;;5065057;28;20183;-84
2021/07/30 12:27:44;;;;;;;7.57;3.93;;;24.60;99.90;;;;;;5071161;28;20248;-82
2021/07/30 12:30:29;;;;;;;9.20;3.77;;;24.60;99.90;;;;;;5075908;28;20180;-82
2021/07/30 12:32:55;;;;;;;6.67;3.70;;;24.60;99.90;;;;;;5074685;28;20765;-82
2021/07/30 12:35:31;;;;;;;6.83;3.80;;;24.50;99.90;;;;;;5066873;28;20180;-84
2021/07/30 12:38:06;;;;;;;8.33;3.93;;;24.60;99.90;;;;;;5065004;28;20178;-81
2021/07/30 12:40:33;;;;;;;7.07;3.77;;;24.70;99.90;;;;;;5049574;28;20191;-83
2021/07/30 12:43:14;;;;;;;8.32;3.72;;;24.70;99.90;;;;;;5066004;28;20191;-82
2021/07/30 12:45:49;;;;;;;6.67;3.67;;;25.00;99.90;;;;;;5052189;28;20179;-83
2021/07/30 12:48:22;;;;;;;9.77;3.50;;;25.40;99.90;;;;;;5054553;28;20241;-82
2021/07/30 12:50:57;;;;;;;6.97;3.70;;;25.70;99.90;;;;;;5071264;28;20217;-83